Cobleskill, NY

16:00 EDT 25. Juuli 2016 (GMT -0400)
NG Cob Quarry | | Change Station

Elev 958 ft 42.68 °N, 74.50 °W | Updated 12 minutes ago

Light Rain
Kerge vihm
82.8 °F
Feels Like 88 °F
Põhja
4.7
Tuul Muutliku suunaga Tuul from Lääne

Täna
High -- | Low -- °F
--% Chance of Precip.
Eile
High -- | Low -- °F
Precip. -- tolli
Õhurõhk 29.87 tolli
Nähtavus 10.0 miili
Pilved Hajus pilvisus 6000 ft
Peamiselt pilves 7000 ft
Lauspilvisus 9000 ft
Kuumaindeks 88 °F
Kastepunkt 72 °F
Õhuniiskus 69%
Sademed 0.14 tolli
Lume paksus Not available.
5:43 AM 8:25 PM
Kahanev kuu, 63% visible
METAR KSCH 251755Z 29003KT 10SM -RA SCT060 BKN070 OVC090 26/21 A2987
Õhurõhk 29.87 tolli
Nähtavus 10.0 miili
Pilved Hajus pilvisus 6000 ft
Peamiselt pilves 7000 ft
Lauspilvisus 9000 ft
Kuumaindeks 88 °F
Kastepunkt 72 °F
Õhuniiskus 69%
Sademed 0.14 tolli
Lume paksus Not available.
5:43 AM 8:25 PM
Kahanev kuu, 63% visible
METAR KSCH 251755Z 29003KT 10SM -RA SCT060 BKN070 OVC090 26/21 A2987
Record highs are possible for parts of the Northeast Monday and Tuesday, as parts of the central U.S. take a little breather from the worst of summer's dog day heat.

Expansive high pressure in the upper atmosphere will focus on parts of the East and West this week, sending heat indices well into the triple digits from the Mid-Atlantic states into the South.

10-Day Weather Forecast

Almanac

Astronoomia

Jul. 25, 2016 Tõus Loojang
Tegelik aeg
Tsiviilne hämarik
Nautiline hämarik
Astronoomiline hämarik
Kuu
Nähtava valguse kestus
Päeva pikkus
Tomorrow will be .
, % of the Moon is Illuminated

Tänased ekstreemumid

State Highs State Lows

Community

WunderPhotos

Upload Photos

1,927,379 photos uploaded!

WunderBlog® & News

Nearby

Õhukvaliteet

  Õhukvaliteet ÕK indeks Reostaja
Not available.

Lume paksus

Station Depth Kõrgus

Maavärinate aktiivsus

Linn Distance Mag. Time & Date
Minimum magnitude displayed is 2.5.

Coastal Water Temperatures

Koht Temperatuur

Stations

Nearby Weather Stations

Jaama asukoht Temp. Tuulekülm Kastepunkt Õhuniiskus Tuul Precip. Elev Uuendatud Tüüp
                   

Watches & Warnings

There are currently no watches in effect.